createdAt,value
2019-05-15T00:01:05.641Z,49.51
2019-05-15T00:03:34.010Z,49.37
2019-05-15T00:06:02.525Z,49.59
2019-05-15T00:08:30.866Z,49.91
2019-05-15T00:10:59.253Z,50.07
2019-05-15T00:13:28.257Z,50.40
2019-05-15T00:15:58.879Z,49.95
2019-05-15T00:18:28.116Z,50.15
2019-05-15T00:20:59.318Z,49.90
2019-05-15T00:23:28.955Z,50.19
2019-05-15T00:25:58.472Z,50.43
2019-05-15T00:28:28.049Z,50.28
2019-05-15T00:30:58.218Z,50.58
2019-05-15T00:33:28.478Z,50.35
2019-05-15T00:35:58.846Z,50.72
2019-05-15T00:38:27.999Z,50.99
2019-05-15T00:40:58.450Z,51.01
2019-05-15T00:43:28.950Z,51.02
2019-05-15T00:45:58.579Z,50.81
2019-05-15T00:48:29.218Z,51.02
2019-05-15T00:50:59.030Z,50.84
2019-05-15T00:53:28.290Z,50.88
2019-05-15T00:55:58.087Z,51.50
2019-05-15T00:58:28.330Z,51.50
2019-05-15T01:00:59.052Z,51.92
2019-05-15T01:03:27.923Z,51.91
2019-05-15T01:05:58.510Z,51.63
2019-05-15T01:08:28.480Z,51.63
2019-05-15T01:10:58.225Z,51.86
2019-05-15T01:13:28.155Z,51.98
2019-05-15T01:15:58.202Z,52.60
2019-05-15T01:18:29.060Z,52.79
2019-05-15T01:20:58.667Z,53.00
2019-05-15T01:23:28.268Z,53.11
2019-05-15T01:25:58.744Z,53.25
2019-05-15T01:28:28.753Z,53.29
2019-05-15T01:30:59.042Z,53.35
2019-05-15T01:33:28.299Z,53.35
2019-05-15T01:35:59.021Z,53.80
2019-05-15T01:38:28.019Z,53.80
2019-05-15T01:40:58.983Z,53.35
2019-05-15T01:43:28.911Z,53.60
2019-05-15T01:45:58.747Z,53.20
2019-05-15T01:48:28.259Z,53.79
2019-05-15T01:50:58.577Z,53.79
2019-05-15T01:53:28.878Z,53.63
2019-05-15T01:55:58.952Z,53.63
2019-05-15T01:58:28.780Z,53.67
2019-05-15T02:00:58.998Z,53.74
2019-05-15T02:03:28.947Z,54.88
2019-05-15T02:05:58.690Z,54.88
2019-05-15T02:08:28.461Z,54.31
2019-05-15T02:10:58.794Z,55.06
2019-05-15T02:13:28.207Z,54.53
2019-05-15T02:15:58.765Z,54.53
2019-05-15T02:18:28.542Z,54.53
2019-05-15T02:20:58.719Z,54.60
2019-05-15T02:23:28.067Z,55.12
2019-05-15T02:25:58.705Z,55.12
2019-05-15T02:28:28.736Z,55.48
2019-05-15T02:30:58.682Z,56.03
2019-05-15T02:33:29.737Z,56.03
2019-05-15T02:35:59.249Z,56.21
2019-05-15T02:38:29.558Z,55.48
2019-05-15T02:40:59.274Z,55.48
2019-05-15T02:43:29.518Z,55.64
2019-05-15T02:46:00.112Z,55.64
2019-05-15T02:48:29.029Z,56.51
2019-05-15T02:50:58.883Z,56.83
2019-05-15T02:53:29.832Z,56.50
2019-05-15T02:56:00.068Z,56.71
2019-05-15T02:58:29.168Z,56.64
2019-05-15T03:00:59.305Z,57.13
2019-05-15T03:03:29.468Z,57.13
2019-05-15T03:06:00.068Z,57.00
2019-05-15T03:08:29.762Z,57.55
2019-05-15T03:10:59.227Z,57.32
2019-05-15T03:13:29.773Z,57.74
2019-05-15T03:15:59.884Z,57.67
2019-05-15T03:18:29.095Z,57.31
2019-05-15T03:21:00.286Z,56.99
2019-05-15T03:23:29.540Z,56.81
2019-05-15T03:26:03.006Z,56.81
2019-05-15T03:28:29.455Z,57.44
2019-05-15T03:31:31.155Z,57.05
2019-05-15T03:33:35.882Z,57.05
2019-05-15T03:36:02.562Z,56.99
2019-05-15T03:38:30.017Z,57.22
2019-05-15T03:40:59.522Z,57.22
2019-05-15T03:43:29.385Z,57.25
2019-05-15T03:46:01.201Z,56.84
2019-05-15T03:48:29.648Z,57.08
2019-05-15T03:50:59.795Z,56.84
2019-05-15T03:53:29.818Z,56.84
2019-05-15T03:55:59.155Z,57.07
2019-05-15T03:58:28.827Z,57.93
2019-05-15T04:01:00.342Z,57.75
2019-05-15T04:03:29.952Z,57.61
2019-05-15T04:06:00.576Z,57.41
2019-05-15T04:08:29.932Z,57.27
2019-05-15T04:10:59.623Z,57.65
2019-05-15T04:13:30.086Z,57.65
2019-05-15T04:15:59.467Z,58.01
2019-05-15T04:18:29.135Z,58.01
2019-05-15T04:21:00.242Z,58.66
2019-05-15T04:23:30.411Z,58.51
2019-05-15T04:25:59.143Z,59.30
2019-05-15T04:28:29.428Z,59.24
2019-05-15T04:30:59.617Z,59.24
2019-05-15T04:33:29.287Z,59.16
2019-05-15T04:35:58.940Z,58.91
2019-05-15T04:38:29.248Z,58.63
2019-05-15T04:40:59.094Z,58.05
2019-05-15T04:43:30.175Z,58.27
2019-05-15T04:45:59.083Z,58.27
2019-05-15T04:48:29.042Z,58.46
2019-05-15T04:50:58.885Z,58.46
2019-05-15T04:53:29.711Z,58.29
2019-05-15T04:55:59.702Z,58.00
2019-05-15T04:58:29.600Z,57.92
2019-05-15T05:00:59.927Z,58.24
2019-05-15T05:03:29.221Z,58.24
2019-05-15T05:05:59.071Z,58.19
2019-05-15T05:08:29.257Z,58.12
2019-05-15T05:10:59.136Z,57.81
2019-05-15T05:13:28.701Z,57.81
2019-05-15T05:15:58.775Z,57.91
2019-05-15T05:18:29.843Z,57.11
2019-05-15T05:20:57.822Z,56.93
2019-05-15T05:23:28.193Z,56.93
2019-05-15T05:25:58.097Z,57.15
2019-05-15T05:28:28.722Z,56.65
2019-05-15T05:30:58.784Z,56.65
2019-05-15T05:33:28.434Z,56.62
2019-05-15T05:35:58.357Z,56.31
2019-05-15T05:38:28.174Z,56.26
2019-05-15T05:40:58.680Z,56.26
2019-05-15T05:43:26.820Z,55.88
2019-05-15T05:45:55.156Z,55.82
2019-05-15T05:48:23.506Z,55.65
2019-05-15T05:50:51.895Z,55.17
2019-05-15T05:53:21.315Z,55.31
2019-05-15T05:55:53.007Z,54.80
2019-05-15T05:58:20.088Z,54.14
2019-05-15T06:00:49.205Z,53.29
2019-05-15T06:03:19.714Z,51.78
2019-05-15T06:05:49.554Z,50.09
2019-05-15T06:08:19.444Z,47.73
2019-05-15T06:10:49.656Z,46.54
2019-05-15T06:13:18.635Z,46.41
2019-05-15T06:15:48.895Z,46.24
2019-05-15T06:18:19.570Z,45.38
2019-05-15T06:20:49.535Z,45.79
2019-05-15T06:23:23.277Z,45.71
2019-05-15T06:25:48.829Z,45.46
2019-05-15T06:28:19.612Z,45.23
2019-05-15T06:30:48.613Z,45.12
2019-05-15T06:33:18.845Z,44.51
2019-05-15T06:35:48.862Z,44.04
2019-05-15T06:38:19.260Z,44.16
2019-05-15T06:40:49.925Z,44.17
2019-05-15T06:43:19.464Z,44.06
2019-05-15T06:45:48.835Z,44.07
2019-05-15T06:48:18.333Z,43.81
2019-05-15T06:50:49.047Z,44.31
2019-05-15T06:53:19.332Z,44.60
2019-05-15T06:55:48.576Z,44.29
2019-05-15T06:58:19.226Z,44.00
2019-05-15T07:00:48.824Z,43.81
2019-05-15T07:03:24.883Z,43.75
2019-05-15T07:05:50.727Z,44.23
2019-05-15T07:08:18.397Z,44.54
2019-05-15T07:10:48.685Z,44.42
2019-05-15T07:13:18.225Z,44.31
2019-05-15T07:15:49.311Z,43.98
2019-05-15T07:18:19.385Z,43.78
2019-05-15T07:20:48.851Z,43.35
2019-05-15T07:23:18.796Z,43.17
2019-05-15T07:25:49.776Z,43.71
2019-05-15T07:28:18.295Z,43.13
2019-05-15T07:30:49.412Z,42.87
2019-05-15T07:33:28.051Z,42.89
2019-05-15T07:35:49.284Z,43.28
2019-05-15T07:38:18.271Z,42.81
2019-05-15T07:40:55.499Z,42.39
2019-05-15T07:43:18.137Z,42.34
2019-05-15T07:45:53.998Z,42.83
2019-05-15T07:48:18.900Z,42.70
2019-05-15T07:50:49.685Z,42.74
2019-05-15T07:53:19.681Z,42.47
2019-05-15T07:55:50.197Z,42.63
2019-05-15T07:58:21.389Z,42.24
2019-05-15T08:00:49.311Z,41.98
2019-05-15T08:03:18.518Z,42.10
2019-05-15T08:05:58.664Z,40.35
2019-05-15T08:08:18.535Z,41.10
2019-05-15T08:10:48.909Z,40.70
2019-05-15T08:13:18.538Z,40.84
2019-05-15T08:15:48.831Z,40.60
2019-05-15T08:18:18.140Z,39.78
2019-05-15T08:21:02.620Z,38.77
2019-05-15T08:23:19.329Z,38.93
2019-05-15T08:25:48.584Z,39.04
2019-05-15T08:28:18.957Z,38.38
2019-05-15T08:30:49.457Z,38.11
2019-05-15T08:33:17.993Z,38.42
2019-05-15T08:35:51.089Z,37.90
2019-05-15T08:38:18.202Z,37.92
2019-05-15T08:40:48.885Z,37.75
2019-05-15T08:43:18.341Z,37.14
2019-05-15T08:45:49.483Z,36.57
2019-05-15T08:48:18.433Z,36.30
2019-05-15T08:50:48.826Z,36.38
2019-05-15T08:53:19.273Z,36.38
2019-05-15T08:55:48.170Z,35.76
2019-05-15T08:58:20.374Z,36.71
2019-05-15T09:00:51.797Z,36.16
2019-05-15T09:03:18.343Z,36.27
2019-05-15T09:05:48.447Z,35.76
2019-05-15T09:08:19.429Z,36.09
2019-05-15T09:10:49.859Z,36.49
2019-05-15T09:13:18.973Z,36.03
2019-05-15T09:15:48.391Z,35.24
2019-05-15T09:18:19.886Z,35.44
2019-05-15T09:20:49.123Z,35.04
2019-05-15T09:23:19.200Z,34.22
2019-05-15T09:25:49.337Z,34.42
2019-05-15T09:28:19.048Z,34.18
2019-05-15T09:30:48.293Z,34.41
2019-05-15T09:33:19.611Z,34.39
2019-05-15T09:35:49.060Z,35.00
2019-05-15T09:38:18.510Z,35.33
2019-05-15T09:40:50.444Z,35.50
2019-05-15T09:43:18.132Z,34.44
2019-05-15T09:45:49.207Z,34.16
2019-05-15T09:48:19.794Z,34.35
2019-05-15T09:50:49.243Z,33.99
2019-05-15T09:53:18.932Z,34.13
2019-05-15T09:55:49.343Z,33.93
2019-05-15T09:58:20.405Z,34.14
2019-05-15T10:00:51.823Z,34.70
2019-05-15T10:03:19.168Z,34.21
2019-05-15T10:05:48.293Z,34.41
2019-05-15T10:08:20.926Z,33.75
2019-05-15T10:10:48.794Z,33.94
2019-05-15T10:13:18.615Z,33.67
2019-05-15T10:15:50.675Z,33.46
2019-05-15T10:18:18.988Z,33.52
2019-05-15T10:20:47.694Z,32.73
2019-05-15T10:23:19.183Z,33.09
2019-05-15T10:25:48.595Z,32.80
2019-05-15T10:28:18.784Z,31.54
2019-05-15T10:30:49.277Z,32.06
2019-05-15T10:33:19.703Z,32.61
2019-05-15T10:35:47.563Z,33.01
2019-05-15T10:38:15.877Z,33.12
2019-05-15T10:40:58.467Z,32.06
2019-05-15T10:43:14.465Z,32.12
2019-05-15T10:45:43.469Z,31.93
2019-05-15T10:48:11.952Z,32.32
2019-05-15T10:50:40.330Z,31.83
2019-05-15T10:53:11.206Z,31.25
2019-05-15T10:55:39.692Z,31.39
2019-05-15T10:58:16.669Z,31.95
2019-05-15T11:00:38.451Z,32.59
2019-05-15T11:03:08.917Z,32.21
2019-05-15T11:05:45.084Z,31.15
2019-05-15T11:08:08.297Z,31.13
2019-05-15T11:10:38.573Z,31.36
2019-05-15T11:13:09.006Z,31.30
2019-05-15T11:15:40.436Z,31.21
2019-05-15T11:18:09.316Z,31.27
2019-05-15T11:20:40.863Z,31.41
2019-05-15T11:23:09.082Z,31.81
2019-05-15T11:25:37.824Z,32.22
2019-05-15T11:28:08.228Z,32.03
2019-05-15T11:30:39.031Z,31.87
2019-05-15T11:33:09.345Z,32.06
2019-05-15T11:35:40.781Z,32.53
2019-05-15T11:38:10.019Z,32.63
2019-05-15T11:40:38.925Z,32.04
2019-05-15T11:43:08.579Z,32.16
2019-05-15T11:45:38.964Z,32.08
2019-05-15T11:48:09.031Z,32.49
2019-05-15T11:50:39.962Z,32.51
2019-05-15T11:53:08.690Z,32.26
2019-05-15T11:55:38.603Z,32.21
2019-05-15T11:58:09.327Z,32.21
2019-05-15T12:00:38.422Z,31.73
2019-05-15T12:03:09.022Z,32.24
2019-05-15T12:05:38.631Z,32.52
2019-05-15T12:08:08.694Z,32.55
2019-05-15T12:10:38.877Z,31.57
2019-05-15T12:13:09.750Z,31.33
2019-05-15T12:15:38.798Z,31.49
2019-05-15T12:18:08.858Z,31.65
2019-05-15T12:20:38.957Z,31.65
2019-05-15T12:23:09.126Z,31.99
2019-05-15T12:25:39.604Z,32.06
2019-05-15T12:28:09.539Z,31.71
2019-05-15T12:30:40.291Z,31.32
2019-05-15T12:33:09.801Z,31.96
2019-05-15T12:35:39.632Z,31.95
2019-05-15T13:00:39.764Z,30.45
2019-05-15T13:03:09.142Z,30.81
2019-05-15T13:05:39.173Z,30.88
2019-05-15T13:08:08.543Z,30.84
2019-05-15T13:10:38.563Z,30.28
2019-05-15T13:13:09.674Z,30.82
2019-05-15T13:15:41.085Z,31.38
2019-05-15T13:18:13.418Z,31.27
2019-05-15T13:20:38.387Z,31.28
2019-05-15T13:23:07.919Z,31.22
2019-05-15T13:25:38.982Z,31.48
2019-05-15T13:28:08.607Z,31.99
2019-05-15T13:30:40.448Z,32.31
2019-05-15T13:33:09.412Z,32.56
2019-05-15T13:35:38.098Z,32.28
2019-05-15T13:38:09.484Z,32.73
2019-05-15T13:40:39.006Z,32.38
2019-05-15T13:43:08.391Z,32.56
2019-05-15T13:45:38.732Z,32.52
2019-05-15T13:48:08.960Z,32.09
2019-05-15T13:50:40.231Z,31.99
2019-05-15T13:53:10.908Z,32.23
2019-05-15T13:55:42.089Z,32.18
2019-05-15T13:58:08.709Z,31.75
2019-05-15T14:00:39.026Z,31.45
2019-05-15T14:03:09.027Z,31.44
2019-05-15T14:05:38.532Z,31.56
2019-05-15T14:08:07.207Z,31.52
2019-05-15T14:10:38.277Z,31.87
2019-05-15T14:13:06.234Z,31.67
2019-05-15T14:15:34.645Z,31.56
2019-05-15T14:18:03.118Z,31.96
2019-05-15T14:20:31.412Z,32.20
2019-05-15T14:22:59.763Z,32.29
2019-05-15T14:25:28.233Z,32.68
2019-05-15T14:27:59.106Z,32.81
2019-05-15T14:30:29.307Z,32.50
2019-05-15T14:32:59.597Z,32.18
2019-05-15T14:35:27.289Z,31.14
2019-05-15T14:38:03.633Z,30.87
2019-05-15T14:40:25.735Z,31.03
2019-05-15T14:42:54.101Z,31.34
2019-05-15T14:45:22.532Z,31.21
2019-05-15T14:47:50.860Z,31.60
2019-05-15T14:50:19.254Z,31.37
2019-05-15T14:52:48.051Z,31.21
2019-05-15T14:55:16.546Z,31.36
2019-05-15T14:57:45.327Z,31.31
2019-05-15T15:00:13.994Z,31.46
2019-05-15T15:02:42.434Z,31.11
2019-05-15T15:05:11.297Z,31.29
2019-05-15T15:07:41.099Z,31.48
2019-05-15T15:10:09.835Z,31.41
2019-05-15T15:12:39.619Z,31.08
2019-05-15T15:15:10.284Z,31.34
2019-05-15T15:17:39.092Z,30.92
2019-05-15T15:20:09.297Z,30.43
2019-05-15T15:22:39.517Z,30.33
2019-05-15T15:25:09.668Z,31.11
2019-05-15T15:27:39.096Z,31.11
2019-05-15T15:30:09.308Z,30.85
2019-05-15T15:32:38.401Z,31.10
2019-05-15T15:35:08.477Z,30.87
2019-05-15T15:37:38.168Z,30.99
2019-05-15T15:40:08.295Z,30.74
2019-05-15T15:42:39.496Z,30.67
2019-05-15T15:45:09.234Z,31.00
2019-05-15T15:47:38.957Z,30.83
2019-05-15T15:50:09.419Z,31.01
2019-05-15T15:52:38.740Z,31.20
2019-05-15T15:55:09.027Z,31.33
2019-05-15T15:57:39.782Z,31.55
2019-05-15T16:00:11.033Z,31.00
2019-05-15T16:02:41.080Z,31.33
2019-05-15T16:05:10.882Z,31.57
2019-05-15T16:07:39.438Z,31.58
2019-05-15T16:10:09.590Z,31.67
2019-05-15T16:12:39.022Z,31.92
2019-05-15T16:15:09.215Z,32.13
2019-05-15T16:17:38.376Z,32.22
2019-05-15T16:20:08.367Z,32.23
2019-05-15T16:22:38.235Z,32.09
2019-05-15T16:25:10.412Z,32.19
2019-05-15T16:27:38.743Z,32.28
2019-05-15T16:30:08.205Z,32.37
2019-05-15T16:32:38.910Z,32.84
2019-05-15T16:35:08.449Z,33.31
2019-05-15T16:37:39.025Z,33.44
2019-05-15T16:40:10.100Z,33.38
2019-05-15T16:42:38.884Z,33.83
2019-05-15T16:45:10.785Z,34.12
2019-05-15T16:47:40.370Z,33.88
2019-05-15T16:50:09.240Z,33.85
2019-05-15T16:52:38.776Z,34.22
2019-05-15T16:55:09.242Z,34.34
2019-05-15T16:57:38.780Z,34.64
2019-05-15T17:00:10.134Z,34.69
2019-05-15T17:02:40.273Z,34.92
2019-05-15T17:05:09.437Z,34.96
2019-05-15T17:07:38.754Z,35.09
2019-05-15T17:10:08.826Z,35.31
2019-05-15T17:12:38.806Z,35.22
2019-05-15T17:15:08.856Z,35.37
2019-05-15T17:18:01.466Z,35.60
2019-05-15T17:20:29.783Z,35.98
2019-05-15T17:22:58.198Z,35.90
2019-05-15T17:25:26.602Z,36.00
2019-05-15T17:27:55.092Z,36.03
2019-05-15T17:30:23.630Z,36.10
2019-05-15T17:32:52.237Z,36.26
2019-05-15T17:35:20.525Z,36.40
2019-05-15T17:37:48.952Z,36.41
2019-05-15T17:40:17.785Z,36.37
2019-05-15T17:42:48.988Z,36.44
2019-05-15T17:46:01.911Z,36.57
2019-05-15T17:48:30.255Z,36.32
2019-05-15T17:50:59.471Z,36.25
2019-05-15T17:53:28.833Z,36.12
2019-05-15T17:55:58.573Z,36.41
2019-05-15T17:58:28.830Z,36.17
2019-05-15T18:00:59.645Z,35.92
2019-05-15T18:03:28.874Z,35.84
2019-05-15T18:05:59.107Z,35.46
2019-05-15T18:08:28.622Z,35.25
2019-05-15T18:10:58.725Z,35.15
2019-05-15T18:13:28.712Z,34.37
2019-05-15T18:16:03.409Z,34.01
2019-05-15T18:18:27.530Z,33.83
2019-05-15T18:21:02.002Z,33.54
2019-05-15T18:23:30.385Z,33.64
2019-05-15T18:26:02.279Z,33.62
2019-05-15T18:28:30.642Z,33.66
2019-05-15T18:31:04.820Z,33.80
2019-05-15T18:33:33.294Z,33.85
2019-05-15T18:36:04.657Z,33.79
2019-05-15T18:38:33.258Z,33.98
2019-05-15T18:41:04.357Z,34.10
2019-05-15T18:44:03.064Z,34.04
2019-05-15T18:46:31.485Z,34.33
2019-05-15T18:49:02.675Z,34.34
2019-05-15T18:51:31.066Z,34.37
2019-05-15T18:54:02.492Z,34.71
2019-05-15T18:56:30.964Z,34.83
2019-05-15T18:58:59.383Z,34.87
2019-05-15T19:01:28.437Z,34.90
2019-05-15T19:04:02.914Z,35.02
2019-05-15T19:06:31.450Z,35.14
2019-05-15T19:09:04.689Z,35.27
2019-05-15T19:11:33.106Z,35.53
2019-05-15T19:14:04.568Z,35.64
2019-05-15T19:17:03.598Z,35.90
2019-05-15T19:19:32.248Z,36.07
2019-05-15T19:22:00.651Z,36.09
2019-05-15T19:24:29.116Z,36.26
2019-05-15T19:27:03.257Z,36.38
2019-05-15T19:29:32.352Z,36.53
2019-05-15T19:32:00.790Z,36.65
2019-05-15T19:34:29.275Z,36.95
2019-05-15T19:36:58.197Z,36.93
2019-05-15T19:40:03.151Z,36.91
2019-05-15T19:42:31.802Z,36.96
2019-05-15T19:45:00.203Z,37.00
2019-05-15T19:47:28.562Z,37.07
2019-05-15T19:49:57.807Z,37.19
2019-05-15T19:52:28.276Z,37.10
2019-05-15T19:54:57.810Z,37.27
2019-05-15T19:57:28.032Z,37.43
2019-05-15T19:59:58.161Z,37.39
2019-05-15T20:02:28.557Z,37.45
2019-05-15T20:04:58.321Z,37.53
2019-05-15T20:07:28.654Z,37.59
2019-05-15T20:09:58.436Z,37.55
2019-05-15T20:12:27.892Z,37.88
2019-05-15T20:14:58.370Z,37.66
2019-05-15T20:17:27.725Z,37.75
2019-05-15T20:19:58.064Z,37.66
2019-05-15T20:22:28.394Z,37.81
2019-05-15T20:24:58.846Z,37.93
2019-05-15T20:27:28.229Z,37.86
2019-05-15T20:29:56.562Z,37.87
2019-05-15T20:32:27.673Z,37.86
2019-05-15T20:34:57.820Z,38.24
2019-05-15T20:37:28.681Z,38.32
2019-05-15T20:39:58.199Z,38.42
2019-05-15T20:42:26.389Z,38.32
2019-05-15T20:44:54.758Z,38.62
2019-05-15T20:47:23.196Z,38.44
2019-05-15T20:49:51.591Z,38.66
2019-05-15T20:52:21.729Z,38.82
2019-05-15T20:54:50.407Z,39.00
2019-05-15T20:57:18.808Z,38.86
2019-05-15T20:59:48.023Z,39.03
2019-05-15T21:02:18.573Z,39.19
2019-05-15T21:04:47.002Z,39.24
2019-05-15T21:07:15.424Z,39.40
2019-05-15T21:09:43.817Z,39.55
2019-05-15T21:12:12.159Z,39.71
2019-05-15T21:14:40.848Z,39.89
2019-05-15T21:17:09.218Z,40.10
2019-05-15T21:19:38.626Z,40.21
2019-05-15T21:22:08.348Z,40.20
2019-05-15T21:24:37.869Z,40.50
2019-05-15T21:27:06.436Z,40.40
2019-05-15T21:34:01.357Z,40.80
2019-05-15T21:37:03.148Z,40.69
2019-05-15T21:44:01.079Z,40.99
2019-05-15T21:47:03.094Z,41.06
2019-05-15T21:50:02.068Z,41.67
2019-05-15T21:53:03.328Z,41.71
2019-05-15T21:56:02.220Z,41.96
2019-05-15T21:59:03.758Z,42.21
2019-05-15T22:02:02.593Z,42.26
2019-05-15T22:05:04.820Z,42.22
2019-05-15T22:11:04.818Z,42.70
2019-05-15T22:14:03.412Z,42.80
2019-05-15T22:17:02.054Z,42.92
2019-05-15T22:20:04.750Z,43.04
2019-05-15T22:23:04.542Z,43.31
2019-05-15T22:26:03.004Z,43.43
2019-05-15T22:29:01.592Z,43.83
2019-05-15T22:32:03.459Z,44.00
2019-05-15T22:35:09.120Z,44.33
2019-05-15T22:38:02.363Z,44.56
2019-05-15T22:41:04.231Z,44.61
2019-05-15T22:44:02.896Z,44.60
2019-05-15T22:47:01.657Z,44.72
2019-05-15T22:50:04.543Z,44.87
2019-05-15T22:53:03.325Z,45.00
2019-05-15T22:56:02.444Z,44.94
2019-05-15T23:07:08.197Z,46.10
2019-05-15T23:10:05.120Z,45.99
2019-05-15T23:13:03.783Z,46.35
2019-05-15T23:16:03.198Z,46.31
2019-05-15T23:19:01.681Z,46.53
2019-05-15T23:22:03.499Z,46.60
2019-05-15T23:25:02.313Z,47.51
2019-05-15T23:28:04.053Z,48.27
2019-05-15T23:31:02.629Z,48.06
2019-05-15T23:34:01.525Z,48.58
2019-05-15T23:36:59.776Z,48.43
2019-05-15T23:43:03.207Z,49.14
2019-05-15T23:46:01.460Z,49.44
2019-05-15T23:48:29.775Z,49.19
2019-05-15T23:50:59.172Z,49.51
2019-05-15T23:53:28.800Z,49.53
2019-05-15T23:55:58.757Z,49.75
2019-05-15T23:58:29.126Z,49.77
